Latest Weather Observations for Victoria Portable AWS B (CFA)

IDV60801

Issued at 6:02 am EST Wednesday 27 September 2023 (issued every 10 minutes, with the page automatically refreshed every 10 minutes)

About weather observations | Map of weather stations | Latest weather observations for VIC | Other Formats
Station Details ID: 250131 Name: PORTABLE VIC AWS 2 (CFA) Lat: -37.41 Lon: 144.30 Height: 749.0 m

Portable automatic weather stations (PAWS) are operated by other organisations, such as Fire and Emergency Services, and are included here by agreement. Portable stations may be deployed to a location for a short period and their location may be subject to change without notice. Wind observations from these stations are provided from heights of either three (3) or ten (10) metres above ground level (AGL).

Data from the previous 72 hours. | See also: Recent months for locations in Victoria
Date/Time
EST
Temp
°C
App
Temp
°C
Dew
Point
°C
Rel
Hum
%
Delta-T
°C
Wind Press
QNH
hPa
Press
MSL
hPa
Rain since
9am
mm
Dir  Spd
km/h
Gust
km/h
Spd
kts
Gust
kts
27/05:50am 5.8 3.9 5.1 95 0.3 S 4 6 2 3 - - 0.2
27/05:40am 5.9 4.0 5.1 95 0.4 SSE 4 4 2 2 - - 0.2
27/05:30am 6.0 4.2 5.3 95 0.3 S 4 7 2 4 - - 0.2
27/05:20am 6.2 4.4 5.4 95 0.4 S 4 6 2 3 - - 0.2
27/05:10am 6.2 4.4 5.4 95 0.4 SSE 4 4 2 2 - - 0.2
27/05:00am 6.2 4.4 5.3 94 0.4 SSE 4 6 2 3 - - 0.2
27/04:50am 6.0 4.1 5.1 94 0.4 SE 4 6 2 3 - - 0.2
27/04:40am 5.8 4.3 4.8 93 0.5 SSE 2 2 1 1 - - 0.2
27/04:30am 5.8 4.2 4.7 93 0.5 SE 2 4 1 2 - - 0.2
27/04:20am 5.8 4.2 4.6 92 0.5 SE 2 4 1 2 - - 0.2
27/04:10am 5.7 4.1 4.4 91 0.6 S 2 4 1 2 - - 0.2
27/04:00am 5.7 3.6 4.1 89 0.7 SE 4 6 2 3 - - 0.2
27/03:50am 5.7 3.7 4.3 91 0.6 SSE 4 6 2 3 - - 0.2
27/03:40am 5.7 3.7 4.5 92 0.5 SSE 4 6 2 3 - - 0.2
27/03:30am 5.6 3.6 4.5 93 0.5 SSE 4 6 2 3 - - 0.2
27/03:20am 5.5 3.1 4.4 93 0.5 SE 6 6 3 3 - - 0.2
27/03:10am 5.5 3.1 4.5 93 0.4 SE 6 6 3 3 - - 0.2
27/03:00am 5.5 3.5 4.6 94 0.4 SE 4 6 2 3 - - 0.2
27/02:50am 5.5 3.5 4.6 94 0.4 SE 4 6 2 3 - - 0.2
27/02:40am 5.4 3.4 4.6 95 0.4 SE 4 4 2 2 - - 0.2
27/02:30am 5.4 3.4 4.6 95 0.4 SE 4 6 2 3 - - 0.2
27/02:20am 5.5 3.5 4.6 94 0.4 SSE 4 6 2 3 - - 0.2
27/02:10am 5.5 3.5 4.6 94 0.4 S 4 6 2 3 - - 0.2
27/02:00am 5.6 3.7 4.8 95 0.4 S 4 6 2 3 - - 0.2
27/01:50am 5.5 3.6 4.9 96 0.3 S 4 4 2 2 - - 0.2
27/01:40am 5.4 3.5 4.8 96 0.3 S 4 4 2 2 - - 0.2
27/01:30am 5.5 3.6 4.8 95 0.3 SSE 4 4 2 2 - - 0.2
27/01:20am 5.8 3.9 5.1 95 0.3 SSE 4 4 2 2 - - 0.2
27/01:10am 6.1 4.3 5.6 97 0.2 SSE 4 4 2 2 - - 0.2
27/01:00am 6.5 5.2 6.1 97 0.2 S 2 2 1 1 - - 0.2
27/12:50am 6.8 5.6 6.5 98 0.1 S 2 4 1 2 - - 0.2
27/12:40am 7.1 6.0 6.8 98 0.1 S 2 4 1 2 - - 0.2
27/12:30am 7.1 6.0 6.8 98 0.1 SSE 2 4 1 2 - - 0.2
27/12:20am 7.1 6.0 6.9 99 0.1 SSE 2 4 1 2 - - 0.2
27/12:10am 7.1 6.0 6.8 98 0.1 SSE 2 4 1 2 - - 0.2
27/12:00am 7.1 5.6 6.8 98 0.1 SSE 4 6 2 3 - - 0.2
 
Date/Time
EST
Temp
°C
App
Temp
°C
Dew
Point
°C
Rel
Hum
%
Delta-T
°C
Wind Press
QNH
hPa
Press
MSL
hPa
Rain since
9am
mm
Dir  Spd
km/h
Gust
km/h
Spd
kts
Gust
kts
26/11:50pm 7.2 5.7 6.9 98 0.1 SE 4 6 2 3 - - 0.2
26/11:40pm 7.4 5.9 7.0 97 0.2 SE 4 6 2 3 - - 0.2
26/11:30pm 7.6 6.6 7.2 97 0.2 SSE 2 4 1 2 - - 0.2
26/11:20pm 7.6 6.6 7.3 98 0.1 S 2 4 1 2 - - 0.2
26/11:10pm 7.6 6.6 7.2 97 0.2 SSE 2 4 1 2 - - 0.2
26/11:00pm 7.5 6.4 7.1 97 0.2 SE 2 4 1 2 - - 0.2
26/10:50pm 7.4 5.9 7.0 97 0.2 SE 4 6 2 3 - - 0.2
26/10:40pm 7.3 5.8 6.9 97 0.2 SE 4 4 2 2 - - 0.2
26/10:30pm 7.4 6.3 7.0 97 0.2 SE 2 4 1 2 - - 0.2
26/10:20pm 7.4 6.3 6.9 97 0.2 SE 2 4 1 2 - - 0.2
26/10:10pm 7.2 6.1 6.7 97 0.2 SSE 2 4 1 2 - - 0.2
26/10:00pm 7.1 5.5 6.5 96 0.3 SE 4 4 2 2 - - 0.2
26/09:50pm 7.0 5.4 6.4 96 0.3 SE 4 4 2 2 - - 0.2
26/09:40pm 7.1 5.5 6.4 95 0.3 SE 4 4 2 2 - - 0.2
26/09:30pm 7.2 5.6 6.5 95 0.3 SE 4 4 2 2 - - 0.2
26/09:20pm 7.3 5.7 6.5 95 0.4 SE 4 6 2 3 - - 0.2
26/09:10pm 7.4 6.2 6.6 95 0.4 SSE 2 4 1 2 - - 0.2
26/09:00pm 7.7 6.2 6.7 93 0.5 SSE 4 4 2 2 - - 0.2
26/08:50pm 7.8 6.7 6.8 93 0.5 SE 2 4 1 2 - - 0.2
26/08:40pm 7.9 6.4 6.9 93 0.5 SE 4 6 2 3 - - 0.2
26/08:30pm 8.1 6.6 6.9 92 0.6 SSE 4 4 2 2 - - 0.2
26/08:20pm 8.2 6.7 6.9 91 0.6 SE 4 6 2 3 - - 0.2
26/08:10pm 8.3 6.8 7.0 91 0.6 SE 4 6 2 3 - - 0.2
26/08:00pm 8.4 6.9 6.9 90 0.7 SSE 4 6 2 3 - - 0.2
26/07:50pm 8.5 7.0 6.9 90 0.8 SSE 4 4 2 2 - - 0.2
26/07:40pm 8.6 7.1 6.9 89 0.8 SE 4 6 2 3 - - 0.2
26/07:30pm 8.8 7.3 6.9 88 0.9 SE 4 4 2 2 - - 0.2
26/07:20pm 9.0 7.5 6.8 86 1.1 SE 4 6 2 3 - - 0.2
26/07:10pm 9.2 7.7 6.8 85 1.2 SE 4 4 2 2 - - 0.2
26/07:00pm 9.4 7.9 6.6 83 1.4 SE 4 6 2 3 - - 0.2
26/06:50pm 9.6 8.0 6.5 81 1.5 SE 4 4 2 2 - - 0.2
26/06:40pm 9.9 8.3 6.4 79 1.7 SSE 4 4 2 2 - - 0.2
26/06:30pm 10.2 8.6 6.3 77 1.9 SSE 4 4 2 2 - - 0.2
26/06:20pm 10.6 9.4 6.3 75 2.1 SE 2 4 1 2 - - 0.2
26/06:10pm 10.9 9.3 6.2 73 2.3 SE 4 4 2 2 - - 0.2
26/06:00pm 11.2 9.6 6.3 72 2.4 SE 4 4 2 2 - - 0.2
26/05:50pm 11.6 10.5 6.7 72 2.4 SE 2 4 1 2 - - 0.2
26/05:40pm 11.9 10.4 6.6 70 2.6 SSE 4 4 2 2 - - 0.2
26/05:30pm 12.2 10.7 6.7 69 2.7 SSE 4 4 2 2 - - 0.2
26/05:20pm 12.4 10.9 6.7 68 2.8 S 4 4 2 2 - - 0.2
26/05:10pm 12.7 11.2 6.7 67 3.0 SE 4 6 2 3 - - 0.2
26/05:00pm 13.0 11.5 6.8 66 3.1 SSE 4 6 2 3 - - 0.2
26/04:50pm 13.3 11.8 6.8 64 3.3 SSE 4 6 2 3 - - 0.2
26/04:40pm 13.6 12.1 6.9 64 3.4 ESE 4 6 2 3 - - 0.2
26/04:30pm 13.8 12.3 7.0 63 3.4 SSE 4 6 2 3 - - 0.2
26/04:20pm 14.2 12.8 7.2 63 3.6 SSE 4 6 2 3 - - 0.2
26/04:10pm 14.4 13.0 7.4 63 3.6 S 4 7 2 4 - - 0.2
26/04:00pm 14.7 13.4 7.7 63 3.6 S 4 6 2 3 - - 0.2
26/03:50pm 14.9 13.7 7.9 63 3.6 S 4 6 2 3 - - 0.2
26/03:40pm 15.3 14.0 7.8 61 3.9 SE 4 7 2 4 - - 0.2
26/03:30pm 15.2 14.0 8.1 62 3.7 SE 4 6 2 3 - - 0.2
26/03:20pm 15.4 14.4 8.8 65 3.5 S 4 6 2 3 - - 0.2
26/03:10pm 16.1 15.2 9.1 63 3.8 S 4 7 2 4 - - 0.2
26/03:00pm 16.2 15.4 9.8 66 3.5 SSE 4 6 2 3 - - 0.2
26/02:50pm 15.8 14.8 8.8 63 3.7 SE 4 6 2 3 - - 0.2
26/02:40pm 15.7 14.8 9.2 65 3.5 E 4 6 2 3 - - 0.2
26/02:30pm 15.8 15.3 9.5 66 3.4 SE 2 4 1 2 - - 0.2
26/02:20pm 15.9 15.0 9.2 64 3.6 ESE 4 6 2 3 - - 0.2
26/02:10pm 15.7 15.0 9.9 68 3.1 S 4 6 2 3 - - 0.2
26/02:00pm 16.6 15.6 10.2 66 3.5 E 6 7 3 4 - - 0.2
26/01:50pm 17.0 16.3 10.1 64 3.8 SE 4 6 2 3 - - 0.2
26/01:40pm 17.0 16.3 10.0 63 3.8 ESE 4 7 2 4 - - 0.2
26/01:30pm 16.5 16.0 10.6 68 3.3 ESE 4 4 2 2 - - 0.2
26/01:20pm 17.2 16.5 10.2 63 3.9 SW 4 4 2 2 - - 0.2
26/01:10pm 17.4 16.6 9.7 60 4.2 WSW 4 6 2 3 - - 0.2
26/01:00pm 16.8 16.3 9.4 61 4.0 WNW 2 4 1 2 - - 0.2
26/12:50pm 16.9 16.2 10.2 64 3.7 W 4 4 2 2 - - 0.2
26/12:40pm 17.3 17.1 10.3 63 3.9 WSW 2 4 1 2 - - 0.2
26/12:30pm 17.1 16.6 9.3 60 4.2 N 2 4 1 2 - - 0.2
26/12:20pm 17.1 16.8 10.0 63 3.9 SW 2 4 1 2 - - 0.2
26/12:10pm 17.4 17.1 11.4 68 3.4 ESE 4 4 2 2 - - 0.2
26/12:00pm 17.9 17.9 11.3 65 3.7 N 2 4 1 2 - - 0.2
26/11:50am 18.2 17.7 10.6 61 4.2 WNW 4 4 2 2 - - 0.2
26/11:40am 18.2 17.7 10.9 62 4.1 WNW 4 6 2 3 - - 0.2
26/11:30am 17.5 17.0 10.9 65 3.7 NE 4 7 2 4 - - 0.2
26/11:20am 16.4 16.1 10.2 66 3.4 ENE 2 4 1 2 - - 0.2
26/11:10am 16.0 15.9 10.8 71 2.9 ESE 2 6 1 3 - - 0.2
26/11:00am 16.0 15.8 10.5 70 3.0 N 2 4 1 2 - - 0.2
26/10:50am 16.0 15.7 10.1 68 3.2 WSW 2 6 1 3 - - 0.0
26/10:40am 15.6 14.7 9.2 65 3.4 SSW 4 4 2 2 - - 0.0
26/10:30am 14.8 14.3 9.5 70 2.8 SW 2 4 1 2 - - 0.0
26/10:20am 13.6 13.1 9.5 76 2.2 SSE 2 4 1 2 - - 0.0
26/10:10am 12.8 12.3 9.2 79 1.9 S 2 4 1 2 - - 0.0
26/10:00am 12.6 12.0 8.8 77 2.0 SSW 2 4 1 2 - - 0.0
26/09:50am 11.6 10.4 8.1 79 1.8 S 4 4 2 2 - - 0.0
26/09:40am 10.9 9.6 7.8 81 1.6 SE 4 6 2 3 - - 0.0
26/09:30am 10.5 9.3 7.9 84 1.3 E 4 4 2 2 - - 0.0
26/09:20am 9.3 8.5 8.1 92 0.6 SE 2 4 1 2 - - 0.0
26/09:10am 8.2 6.9 7.5 95 0.3 E 4 6 2 3 - - 0.0
26/09:00am 7.5 5.7 7.0 97 0.2 SE 6 7 3 4 - - 0.2
26/08:50am 7.0 5.1 6.7 98 0.1 SE 6 6 3 3 - - 0.2
26/08:40am 6.9 5.4 6.6 98 0.1 ESE 4 6 2 3 - - 0.2
26/08:30am 6.4 4.8 6.3 99 0.0 SE 4 6 2 3 - - 0.2
26/08:20am 6.5 4.9 6.3 99 0.1 SSE 4 6 2 3 - - 0.2
26/08:10am 6.5 4.9 6.4 99 0.0 S 4 6 2 3 - - 0.2
26/08:00am 6.0 4.3 5.8 99 0.1 SE 4 7 2 4 - - 0.2
26/07:50am 6.1 4.4 5.9 99 0.1 SE 4 6 2 3 - - 0.2
26/07:40am 5.7 4.0 5.7 100 0.0 SSE 4 6 2 3 - - 0.2
26/07:30am 5.5 3.7 5.4 99 0.0 SE 4 6 2 3 - - 0.2
26/07:20am 5.2 3.4 5.2 100 0.0 E 4 6 2 3 - - 0.2
26/07:10am 5.1 3.2 5.0 99 0.0 SE 4 6 2 3 - - 0.2
26/07:00am 5.0 3.1 5.0 100 0.0 ESE 4 6 2 3 - - 0.2
26/06:50am 4.9 3.0 4.9 100 0.0 SE 4 6 2 3 - - 0.2
26/06:40am 5.0 3.1 4.9 99 0.0 ESE 4 6 2 3 - - 0.2
26/06:30am 5.1 3.2 5.1 100 0.0 SE 4 4 2 2 - - 0.2
26/06:20am 5.1 3.2 5.1 100 0.0 ESE 4 4 2 2 - - 0.2
26/06:10am 5.1 3.2 5.1 100 0.0 ESE 4 6 2 3 - - 0.2
26/06:00am 5.2 3.4 5.2 100 0.0 ESE 4 6 2 3 - - 0.2
26/05:50am 5.3 3.5 5.2 99 0.0 ESE 4 6 2 3 - - 0.2
26/05:40am 5.4 3.6 5.3 99 0.0 SE 4 6 2 3 - - 0.2
26/05:30am 5.3 3.1 5.3 100 0.0 SE 6 7 3 4 - - 0.2
26/05:20am 5.3 3.1 5.3 100 0.0 ESE 6 9 3 5 - - 0.2
26/05:10am 5.5 3.3 5.4 99 0.0 SE 6 9 3 5 - - 0.2
26/05:00am 5.6 3.4 5.5 99 0.0 ESE 6 7 3 4 - - 0.2
26/04:50am 5.7 3.6 5.6 99 0.0 ESE 6 9 3 5 - - 0.2
26/04:40am 5.7 3.6 5.7 100 0.0 SE 6 9 3 5 - - 0.2
26/04:30am 5.7 3.6 5.7 100 0.0 ESE 6 7 3 4 - - 0.2
26/04:20am 5.8 3.7 5.8 100 0.0 SE 6 7 3 4 - - 0.2
26/04:10am 5.9 3.8 5.8 99 0.0 ESE 6 7 3 4 - - 0.2
26/04:00am 6.0 4.3 5.9 99 0.0 SE 4 4 2 2 - - 0.2
26/03:50am 5.9 4.2 5.9 100 0.0 SE 4 7 2 4 - - 0.2
26/03:40am 6.0 4.3 6.0 100 0.0 ESE 4 7 2 4 - - 0.2
26/03:30am 6.0 4.3 6.0 100 0.0 SE 4 6 2 3 - - 0.2
26/03:20am 6.1 4.4 6.0 99 0.0 SE 4 6 2 3 - - 0.2
26/03:10am 6.1 4.4 6.1 100 0.0 ESE 4 6 2 3 - - 0.2
26/03:00am 6.1 4.4 6.1 100 0.0 SE 4 6 2 3 - - 0.2
26/02:50am 6.2 4.2 6.1 99 0.0 SE 6 7 3 4 - - 0.2
26/02:40am 6.4 4.8 6.3 99 0.0 SE 4 6 2 3 - - 0.2
26/02:30am 6.5 4.9 6.5 100 0.0 ESE 4 4 2 2 - - 0.2
26/02:20am 6.6 5.1 6.6 100 0.0 SE 4 4 2 2 - - 0.2
26/02:10am 6.7 5.2 6.6 99 0.0 SE 4 6 2 3 - - 0.2
26/02:00am 6.8 4.9 6.7 99 0.0 SE 6 7 3 4 - - 0.2
26/01:50am 6.9 5.4 6.8 99 0.0 SE 4 6 2 3 - - 0.2
26/01:40am 7.0 5.2 7.0 100 0.0 SSE 6 6 3 3 - - 0.2
26/01:30am 7.2 5.4 7.2 100 0.0 SE 6 7 3 4 - - 0.2
26/01:20am 7.3 5.9 7.2 99 0.0 SE 4 7 2 4 - - 0.2
26/01:10am 7.4 6.0 7.3 99 0.0 SSE 4 6 2 3 - - 0.2
26/01:00am 7.4 5.6 7.3 99 0.0 SE 6 6 3 3 - - 0.2
26/12:50am 7.5 5.8 7.5 100 0.0 ESE 6 7 3 4 - - 0.2
26/12:40am 7.6 5.9 7.5 99 0.0 ESE 6 7 3 4 - - 0.0
26/12:30am 7.7 6.4 7.6 99 0.0 SE 4 6 2 3 - - 0.0
26/12:20am 7.8 6.5 7.7 99 0.0 SE 4 6 2 3 - - 0.0
26/12:10am 7.9 6.6 7.8 99 0.0 SE 4 6 2 3 - - 0.0
26/12:00am 7.9 6.6 7.8 99 0.0 SE 4 6 2 3 - - 0.0
 
Date/Time
EST
Temp
°C
App
Temp
°C
Dew
Point
°C
Rel
Hum
%
Delta-T
°C
Wind Press
QNH
hPa
Press
MSL
hPa
Rain since
9am
mm
Dir  Spd
km/h
Gust
km/h
Spd
kts
Gust
kts
25/11:50pm 8.0 6.8 7.9 99 0.0 SE 4 6 2 3 - - 0.0
25/11:40pm 8.0 6.8 7.9 99 0.0 SE 4 4 2 2 - - 0.0
25/11:30pm 8.1 6.9 8.0 99 0.0 SE 4 6 2 3 - - 0.0
25/11:20pm 8.2 7.0 8.0 99 0.1 SSE 4 6 2 3 - - 0.0
25/11:10pm 8.3 7.1 8.1 99 0.1 SE 4 6 2 3 - - 0.0
25/11:00pm 8.3 7.1 8.2 99 0.1 SE 4 6 2 3 - - 0.0
25/10:50pm 8.4 6.8 8.2 99 0.1 SE 6 7 3 4 - - 0.0
25/10:40pm 8.6 7.5 8.4 99 0.1 SE 4 6 2 3 - - 0.0
25/10:30pm 8.6 7.5 8.5 99 0.1 SE 4 6 2 3 - - 0.0
25/10:20pm 8.6 7.5 8.5 99 0.1 SE 4 6 2 3 - - 0.0
25/10:10pm 8.6 7.1 8.4 99 0.1 SE 6 6 3 3 - - 0.0
25/10:00pm 8.6 7.5 8.4 99 0.1 SE 4 6 2 3 - - 0.0
25/09:50pm 8.6 7.5 8.4 99 0.1 SE 4 6 2 3 - - 0.0
25/09:40pm 8.6 7.5 8.4 99 0.1 ESE 4 6 2 3 - - 0.0
25/09:30pm 8.6 7.5 8.4 99 0.1 ESE 4 6 2 3 - - 0.0
25/09:20pm 8.5 7.4 8.3 99 0.1 ESE 4 7 2 4 - - 0.0
25/09:10pm 8.5 7.4 8.3 99 0.1 SE 4 6 2 3 - - 0.0
25/09:00pm 8.6 7.5 8.3 98 0.2 SE 4 6 2 3 - - 0.0
25/08:50pm 8.6 7.5 8.3 98 0.2 SE 4 6 2 3 - - 0.0
25/08:40pm 8.6 7.1 8.3 98 0.2 SE 6 6 3 3 - - 0.0
25/08:30pm 8.6 7.1 8.3 98 0.2 SE 6 6 3 3 - - 0.0
25/08:20pm 8.6 7.1 8.3 98 0.2 SE 6 7 3 4 - - 0.0
25/08:10pm 8.7 7.2 8.3 97 0.2 SE 6 7 3 4 - - 0.0
25/08:00pm 8.7 7.6 8.4 98 0.2 SE 4 7 2 4 - - 0.0
25/07:50pm 8.9 7.4 8.5 97 0.2 SE 6 7 3 4 - - 0.0
25/07:40pm 9.2 7.8 8.8 97 0.2 SE 6 7 3 4 - - 0.0
25/07:30pm 9.3 7.9 8.9 97 0.2 SE 6 6 3 3 - - 0.0
25/07:20pm 9.4 8.4 9.0 97 0.2 SSE 4 7 2 4 - - 0.0
25/07:10pm 9.5 8.5 9.0 97 0.3 SE 4 6 2 3 - - 0.0
25/07:00pm 9.6 8.3 9.1 97 0.3 SE 6 7 3 4 - - 0.0
25/06:50pm 9.8 8.5 9.2 96 0.3 SE 6 9 3 5 - - 0.0
25/06:40pm 10.0 8.7 9.3 95 0.4 SE 6 7 3 4 - - 0.0
25/06:30pm 10.2 9.0 9.4 95 0.4 SE 6 7 3 4 - - 0.0
25/06:20pm 10.3 9.1 9.4 94 0.5 SE 6 7 3 4 - - 0.0
25/06:10pm 10.6 9.4 9.5 93 0.6 ESE 6 7 3 4 - - 0.0
25/06:00pm 11.0 10.2 9.5 90 0.8 SE 4 7 2 4 - - 0.0
25/05:50pm 11.2 10.0 9.5 89 0.9 SE 6 6 3 3 - - 0.0
25/05:40pm 11.7 10.5 9.6 87 1.1 ESE 6 9 3 5 - - 0.0
25/05:30pm 12.1 10.9 9.7 85 1.3 ESE 6 7 3 4 - - 0.0
25/05:20pm 12.4 11.6 9.7 83 1.4 SE 4 6 2 3 - - 0.0
25/05:10pm 12.6 11.8 9.8 83 1.5 SE 4 7 2 4 - - 0.0
25/05:00pm 12.9 11.8 9.9 82 1.6 SSE 6 9 3 5 - - 0.0
25/04:50pm 13.5 12.8 10.0 79 1.9 SE 4 6 2 3 - - 0.0
25/04:40pm 13.7 12.6 10.0 78 2.0 SSE 6 9 3 5 - - 0.0
25/04:30pm 13.7 12.6 10.1 79 1.9 SE 6 7 3 4 - - 0.0
25/04:20pm 14.3 13.3 10.3 77 2.2 SE 6 7 3 4 - - 0.0
25/04:10pm 15.0 14.3 10.2 73 2.6 SSE 4 6 2 3 - - 0.0
25/04:00pm 14.8 14.2 10.3 74 2.4 SSE 4 7 2 4 - - 0.0
25/03:50pm 15.2 14.2 10.3 72 2.7 SE 6 7 3 4 - - 0.0
25/03:40pm 15.6 14.6 10.4 71 2.8 SE 6 7 3 4 - - 0.0
25/03:30pm 16.3 15.3 10.4 68 3.2 ESE 6 7 3 4 - - 0.0
25/03:20pm 17.0 16.0 10.4 65 3.6 SE 6 7 3 4 - - 0.0
25/03:10pm 17.5 16.5 10.2 62 4.0 SE 6 9 3 5 - - 0.0
25/03:00pm 17.7 16.6 10.1 61 4.2 SE 6 7 3 4 - - 0.0
25/02:50pm 17.9 16.8 10.1 60 4.3 ESE 6 9 3 5 - - 0.0
25/02:40pm 18.2 17.0 9.7 57 4.7 SE 6 11 3 6 - - 0.0
25/02:30pm 18.6 17.5 9.9 57 4.8 SSE 6 9 3 5 - - 0.0
25/02:20pm 19.3 18.2 10.0 55 5.2 SE 6 7 3 4 - - 0.0
25/02:10pm 19.7 18.5 9.5 51 5.6 SE 6 7 3 4 - - 0.0
25/02:00pm 20.2 19.0 9.6 50 5.9 SE 6 7 3 4 - - 0.0
25/01:50pm 20.4 19.0 7.4 43 6.9 SSE 4 6 2 3 - - 0.0
25/01:40pm 20.3 18.8 6.7 41 7.1 SSE 4 6 2 3 - - 0.0
25/01:30pm 20.2 18.1 5.7 38 7.5 ESE 6 7 3 4 - - 0.0
25/01:20pm 20.0 18.5 6.6 41 7.0 SE 4 6 2 3 - - 0.0
25/01:10pm 20.1 18.2 6.5 41 7.1 ESE 6 7 3 4 - - 0.0
25/01:00pm 19.9 17.9 6.3 41 7.1 S 6 7 3 4 - - 0.0
25/12:50pm 20.5 18.9 6.5 40 7.3 SE 4 6 2 3 - - 0.0
25/12:40pm 20.4 18.3 6.0 39 7.5 E 6 7 3 4 - - 0.0
25/12:30pm 20.5 18.9 6.3 39 7.4 SSE 4 4 2 2 - - 0.0
25/12:20pm 21.0 19.5 6.9 40 7.5 SSW 4 6 2 3 - - 0.0
25/12:10pm 21.5 20.2 7.6 40 7.5 SE 4 6 2 3 - - 0.0
25/12:00pm 21.5 19.7 7.3 40 7.6 SSE 6 9 3 5 - - 0.0
25/11:50am 22.2 20.8 7.1 37 8.1 SE 4 6 2 3 - - 0.0
25/11:40am 21.9 20.5 7.2 38 7.9 S 4 6 2 3 - - 0.0
25/11:30am 21.9 20.2 6.0 35 8.3 S 4 6 2 3 - - 0.0
25/11:20am 21.9 20.6 5.8 35 8.4 SSE 2 6 1 3 - - 0.0
25/11:10am 21.4 19.9 6.6 38 7.8 W 4 6 2 3 - - 0.0
25/11:00am 20.7 19.0 5.9 38 7.7 SW 4 6 2 3 - - 0.0
25/10:50am 20.2 18.6 6.5 41 7.2 W 4 4 2 2 - - 0.0
25/10:40am 19.7 18.0 5.9 40 7.1 SW 4 6 2 3 - - 0.0
25/10:30am 19.2 17.8 7.3 46 6.3 S 4 7 2 4 - - 0.0
25/10:20am 18.9 17.9 7.3 47 6.1 E 2 4 1 2 - - 0.0
25/10:10am 18.2 17.0 6.3 45 6.1 SSW 2 4 1 2 - - 0.0
25/10:00am 18.1 16.5 6.4 46 6.0 NW 4 4 2 2 - - 0.0
25/09:50am 18.2 17.1 6.7 47 6.0 NW 2 4 1 2 - - 0.0
25/09:40am 17.7 16.5 6.6 48 5.7 NW 2 4 1 2 - - 0.0
25/09:30am 17.0 16.0 7.5 53 5.0 WSW 2 4 1 2 - - 0.0
25/09:20am 16.2 14.7 6.6 53 4.9 WNW 4 4 2 2 - - 0.0
25/09:10am 14.8 13.7 6.9 59 4.0 NW 2 4 1 2 - - 0.0
25/09:00am 13.9 12.8 7.1 63 3.5 N 2 4 1 2 - - 0.0
25/08:50am 14.3 13.2 6.8 60 3.8 NNE 2 6 1 3 - - 0.0
25/08:40am 13.5 12.4 6.8 64 3.4 NNW 2 6 1 3 - - 0.0
25/08:30am 12.5 10.9 6.3 66 3.1 NNW 4 6 2 3 - - 0.0
25/08:20am 11.9 10.8 6.9 71 2.5 NNW 2 4 1 2 - - 0.0
25/08:10am 12.1 10.9 6.3 67 2.9 NNW 2 4 1 2 - - 0.0
25/08:00am 11.1 10.0 6.8 75 2.1 N 2 4 1 2 - - 0.0
25/07:50am 10.5 9.7 6.5 76 2.0 CALM 0 2 0 1 - - 0.0
25/07:40am 9.5 8.4 6.7 83 1.4 W 2 4 1 2 - - 0.0
25/07:30am 9.6 8.8 6.6 81 1.5 CALM 0 2 0 1 - - 0.0
25/07:20am 9.6 8.9 6.8 83 1.4 CALM 0 2 0 1 - - 0.0
25/07:10am 9.5 8.6 6.1 79 1.6 CALM 0 2 0 1 - - 0.0
25/07:00am 9.3 8.5 6.3 81 1.4 CALM 0 2 0 1 - - 0.0
25/06:50am 9.3 8.4 6.0 80 1.6 CALM 0 2 0 1 - - 0.0
25/06:40am 9.4 8.5 6.1 80 1.6 CALM 0 2 0 1 - - 0.0
25/06:30am 9.5 8.2 5.8 78 1.8 N 2 2 1 1 - - 0.0
25/06:20am 9.5 8.2 5.8 78 1.8 N 2 4 1 2 - - 0.0
25/06:10am 9.4 8.0 5.7 78 1.8 N 2 4 1 2 - - 0.0
25/06:00am 9.3 8.0 5.8 79 1.7 N 2 6 1 3 - - 0.0
25/05:50am 9.3 8.0 5.9 79 1.6 NNE 2 4 1 2 - - 0.0
25/05:40am 9.4 8.1 6.0 79 1.6 NNE 2 2 1 1 - - 0.0
25/05:30am 9.5 8.2 6.0 79 1.7 N 2 2 1 1 - - 0.0
25/05:20am 9.6 8.3 6.0 78 1.7 NNE 2 2 1 1 - - 0.0
25/05:10am 9.6 8.3 6.0 78 1.7 N 2 2 1 1 - - 0.0
25/05:00am 9.6 8.3 5.9 78 1.8 N 2 4 1 2 - - 0.0
25/04:50am 9.7 8.4 5.9 77 1.8 N 2 6 1 3 - - 0.0
25/04:40am 9.6 8.3 5.9 78 1.8 N 2 4 1 2 - - 0.0
25/04:30am 9.6 8.3 5.9 78 1.8 N 2 4 1 2 - - 0.0
25/04:20am 9.6 8.3 5.8 77 1.8 N 2 4 1 2 - - 0.0
25/04:10am 9.5 8.2 5.8 78 1.8 N 2 4 1 2 - - 0.0
25/04:00am 9.4 8.1 5.8 78 1.7 NNW 2 4 1 2 - - 0.0
25/03:50am 9.4 8.0 5.7 78 1.8 N 2 4 1 2 - - 0.0
25/03:40am 9.3 8.3 5.8 79 1.7 CALM 0 2 0 1 - - 0.0
25/03:30am 9.2 7.8 5.7 79 1.7 WNW 2 4 1 2 - - 0.0
25/03:20am 9.3 8.0 5.9 79 1.6 W 2 2 1 1 - - 0.0
25/03:10am 9.5 8.2 6.1 79 1.6 W 2 4 1 2 - - 0.0
25/03:00am 9.7 8.4 5.8 77 1.9 NNE 2 4 1 2 - - 0.0
25/02:50am 9.8 8.5 5.9 77 1.9 N 2 4 1 2 - - 0.0
25/02:40am 9.8 8.5 5.8 76 1.9 N 2 4 1 2 - - 0.0
25/02:30am 9.9 8.6 6.2 78 1.8 WNW 2 4 1 2 - - 0.0
25/02:20am 10.3 9.0 5.9 74 2.1 N 2 6 1 3 - - 0.0
25/02:10am 10.3 9.0 6.0 74 2.1 N 2 4 1 2 - - 0.0
25/02:00am 10.4 9.1 6.1 75 2.1 N 2 4 1 2 - - 0.0
25/01:50am 10.5 8.8 6.1 74 2.1 NNE 4 7 2 4 - - 0.0
25/01:40am 10.5 8.8 6.1 74 2.1 NNE 4 6 2 3 - - 0.0
25/01:30am 10.6 9.3 6.2 74 2.1 NNE 2 4 1 2 - - 0.0
25/01:20am 10.5 8.8 6.1 74 2.1 N 4 7 2 4 - - 0.0
25/01:10am 10.7 9.5 6.3 74 2.1 NNE 2 4 1 2 - - 0.0
25/01:00am 10.8 9.2 6.3 74 2.2 N 4 6 2 3 - - 0.0
25/12:50am 10.9 9.3 6.3 73 2.2 NNE 4 6 2 3 - - 0.0
25/12:40am 10.9 9.3 6.3 73 2.2 NNE 4 6 2 3 - - 0.0
25/12:30am 11.1 9.5 6.3 72 2.3 NNE 4 6 2 3 - - 0.0
25/12:20am 11.1 9.5 6.5 73 2.3 N 4 6 2 3 - - 0.0
25/12:10am 11.2 9.6 6.5 73 2.3 N 4 6 2 3 - - 0.0
25/12:00am 11.4 9.8 6.5 72 2.4 NE 4 6 2 3 - - 0.0
 
Date/Time
EST
Temp
°C
App
Temp
°C
Dew
Point
°C
Rel
Hum
%
Delta-T
°C
Wind Press
QNH
hPa
Press
MSL
hPa
Rain since
9am
mm
Dir  Spd
km/h
Gust
km/h
Spd
kts
Gust
kts
24/11:50pm 11.5 9.9 6.5 71 2.5 NNE 4 6 2 3 - - 0.0
24/11:40pm 11.6 10.0 6.4 70 2.6 NE 4 7 2 4 - - 0.0
24/11:30pm 11.6 10.0 6.4 70 2.6 NNE 4 6 2 3 - - 0.0
24/11:20pm 11.7 10.1 6.2 69 2.7 NNE 4 6 2 3 - - 0.0
24/11:10pm 11.9 10.2 6.0 67 2.9 N 4 6 2 3 - - 0.0
24/11:00pm 11.8 10.5 6.0 67 2.8 N 2 6 1 3 - - 0.0
24/10:50pm 12.1 10.4 5.9 66 3.0 N 4 6 2 3 - - 0.0
24/10:40pm 12.1 10.4 5.7 65 3.1 N 4 6 2 3 - - 0.0
24/10:30pm 12.2 10.5 5.8 65 3.1 NNE 4 6 2 3 - - 0.0
24/10:20pm 12.3 10.6 5.7 64 3.2 N 4 6 2 3 - - 0.0
24/10:10pm 12.5 10.7 5.6 63 3.4 N 4 6 2 3 - - 0.0
24/10:00pm 12.4 11.0 5.6 63 3.3 N 2 4 1 2 - - 0.0
24/09:50pm 12.6 10.8 5.5 62 3.5 N 4 6 2 3 - - 0.0
24/09:40pm 12.5 11.1 5.5 62 3.4 N 2 6 1 3 - - 0.0
24/09:30pm 12.4 11.0 5.7 63 3.3 N 2 4 1 2 - - 0.0
24/09:20pm 12.5 11.1 5.5 62 3.4 N 2 4 1 2 - - 0.0
24/09:10pm 12.4 11.0 5.7 63 3.3 NNW 2 4 1 2 - - 0.0
24/09:00pm 12.4 11.1 5.8 64 3.2 N 2 6 1 3 - - 0.0
24/08:50pm 12.4 11.1 5.8 64 3.2 NNW 2 4 1 2 - - 0.0
24/08:40pm 12.4 11.0 5.7 63 3.3 NNW 2 4 1 2 - - 0.0
24/08:30pm 12.4 11.1 5.8 64 3.2 NNW 2 4 1 2 - - 0.0
24/08:20pm 12.4 11.1 5.8 64 3.2 NNW 2 6 1 3 - - 0.0
24/08:10pm 12.5 11.2 6.1 65 3.2 NNW 2 4 1 2 - - 0.0
24/08:00pm 12.6 10.9 5.9 63 3.3 NNW 4 4 2 2 - - 0.0
24/07:50pm 12.4 11.1 5.8 64 3.2 NW 2 4 1 2 - - 0.0
24/07:40pm 12.5 11.2 6.0 64 3.2 NNW 2 6 1 3 - - 0.0
24/07:30pm 12.6 10.9 5.9 63 3.3 NNW 4 4 2 2 - - 0.0
24/07:20pm 12.6 11.3 6.0 64 3.2 NNW 2 4 1 2 - - 0.0
24/07:10pm 12.5 11.2 6.1 65 3.2 NW 2 4 1 2 - - 0.0
24/07:00pm 12.7 11.4 6.0 63 3.3 NW 2 2 1 1 - - 0.0
24/06:50pm 13.0 11.7 6.0 62 3.5 NNW 2 2 1 1 - - 0.0
24/06:40pm 13.2 12.3 6.0 61 3.6 CALM 0 0 0 0 - - 0.0
24/06:30pm 13.6 12.8 6.4 62 3.6 CALM 0 2 0 1 - - 0.0
24/06:20pm 14.0 12.7 6.2 59 3.9 N 2 4 1 2 - - 0.0
24/06:10pm 14.3 13.1 6.3 58 4.0 N 2 6 1 3 - - 0.0
24/06:00pm 14.7 13.5 6.4 57 4.2 NNW 2 2 1 1 - - 0.0
24/05:50pm 15.0 13.8 6.4 56 4.3 N 2 6 1 3 - - 0.0
24/05:40pm 15.2 14.0 6.5 56 4.4 N 2 4 1 2 - - 0.0
24/05:30pm 15.5 14.0 6.6 55 4.5 N 4 4 2 2 - - 0.0
24/05:20pm 15.8 14.2 6.3 53 4.8 N 4 6 2 3 - - 0.0
24/05:10pm 16.0 14.4 6.5 53 4.8 N 4 4 2 2 - - 0.0
24/05:00pm 16.3 14.8 6.8 53 4.9 N 4 6 2 3 - - 0.0
24/04:50pm 16.5 15.0 6.6 52 5.1 NNE 4 6 2 3 - - 0.0
24/04:40pm 16.7 15.2 6.9 52 5.0 N 4 6 2 3 - - 0.0
24/04:30pm 16.9 15.4 6.6 50 5.3 N 4 6 2 3 - - 0.0
24/04:20pm 16.9 15.3 6.5 50 5.3 N 4 6 2 3 - - 0.0
24/04:10pm 16.9 15.4 6.8 51 5.2 NNE 4 6 2 3 - - 0.0
24/04:00pm 17.2 15.7 6.6 49 5.4 N 4 6 2 3 - - 0.0
24/03:50pm 17.5 15.9 6.3 47 5.7 N 4 7 2 4 - - 0.0
24/03:40pm 17.6 16.0 6.3 47 5.8 N 4 7 2 4 - - 0.0
24/03:30pm 18.1 16.1 6.2 45 6.1 NNE 6 7 3 4 - - 0.0
24/03:20pm 17.8 16.2 6.5 47 5.8 N 4 6 2 3 - - 0.0
24/03:10pm 17.3 15.7 6.5 49 5.5 N 4 7 2 4 - - 0.0
24/03:00pm 17.4 15.5 6.9 50 5.4 NNE 6 11 3 6 - - 0.0
24/02:50pm 17.4 15.4 6.2 47 5.7 N 6 7 3 4 - - 0.0
24/02:40pm 17.3 15.3 6.4 48 5.6 N 6 7 3 4 - - 0.0
24/02:30pm 17.3 15.4 6.8 50 5.4 N 6 7 3 4 - - 0.0
24/02:20pm 17.6 15.6 6.4 47 5.7 NNE 6 9 3 5 - - 0.0
24/02:10pm 17.9 15.8 5.7 44 6.2 N 6 7 3 4 - - 0.0
24/02:00pm 18.1 16.0 5.9 44 6.2 NNE 6 7 3 4 - - 0.0
24/01:50pm 18.1 16.3 7.1 48 5.7 NNW 6 7 3 4 - - 0.0
24/01:40pm 17.9 15.8 5.8 45 6.1 N 6 7 3 4 - - 0.0
24/01:30pm 17.8 16.0 7.1 49 5.6 N 6 9 3 5 - - 0.0
24/01:20pm 17.9 16.1 7.3 50 5.5 N 6 6 3 3 - - 0.0
24/01:10pm 17.6 15.7 6.5 48 5.7 N 6 7 3 4 - - 0.0
24/01:00pm 17.8 16.0 7.2 50 5.5 NNE 6 11 3 6 - - 0.0
24/12:50pm 17.7 16.1 8.0 53 5.1 NNE 6 7 3 4 - - 0.0
24/12:40pm 17.6 15.9 7.5 51 5.3 NNE 6 7 3 4 - - 0.0
24/12:30pm 17.9 16.4 6.7 48 5.8 NW 4 6 2 3 - - 0.0
24/12:20pm 17.9 16.2 7.6 51 5.4 N 6 6 3 3 - - 0.0
24/12:10pm 18.5 16.6 6.8 46 6.1 NNW 6 9 3 5 - - 0.0
24/12:00pm 18.4 17.0 7.1 47 5.9 N 4 6 2 3 - - 0.0
24/11:50am 17.7 16.0 7.4 51 5.4 N 6 7 3 4 - - 0.0
24/11:40am 17.7 15.8 6.7 48 5.7 N 6 7 3 4 - - 0.0
24/11:30am 17.4 15.6 7.1 50 5.3 N 6 7 3 4 - - 0.0
24/11:20am 17.7 15.9 7.0 49 5.6 NNW 6 7 3 4 - - 0.0
24/11:10am 18.1 16.8 7.6 50 5.5 N 4 6 2 3 - - 0.0
24/11:00am 17.7 16.4 7.5 51 5.3 NNW 4 6 2 3 - - 0.0
24/10:50am 17.1 15.8 7.5 53 5.0 N 4 4 2 2 - - 0.0
24/10:40am 16.7 14.8 6.5 51 5.2 NW 6 7 3 4 - - 0.0
24/10:30am 16.4 14.5 6.6 52 5.0 N 6 7 3 4 - - 0.0
24/10:20am 15.8 13.9 6.7 54 4.6 N 6 7 3 4 - - 0.0
24/10:10am 15.3 13.8 6.9 57 4.3 NNW 4 6 2 3 - - 0.0
24/10:00am 15.3 13.5 7.1 58 4.2 NNE 6 7 3 4 - - 0.0
24/09:50am 15.5 13.7 7.1 57 4.3 N 6 7 3 4 - - 0.0
24/09:40am 15.6 14.2 7.4 58 4.2 NW 4 6 2 3 - - 0.0
24/09:30am 15.1 13.5 6.2 55 4.5 N 4 7 2 4 - - 0.0
24/09:20am 14.7 13.2 6.9 59 4.0 N 4 6 2 3 - - 0.0
24/09:10am 14.0 12.7 7.6 65 3.3 N 4 6 2 3 - - 0.0
24/09:00am 13.9 12.5 7.3 64 3.4 NNW 4 6 2 3 - - 0.0
24/08:50am 14.4 13.4 7.4 63 3.6 NW 2 4 1 2 - - 0.0
24/08:40am 14.0 13.1 7.7 66 3.2 NNE 2 4 1 2 - - 0.0
24/08:30am 13.2 12.3 7.8 70 2.8 N 2 2 1 1 - - 0.0
24/08:20am 12.3 11.7 7.5 72 2.4 CALM 0 2 0 1 - - 0.0
24/08:10am 11.0 9.9 7.1 77 1.9 NNE 2 6 1 3 - - 0.0
24/08:00am 9.7 9.0 7.0 83 1.3 CALM 0 4 0 2 - - 0.0
24/07:50am 8.9 8.1 6.4 84 1.2 CALM 0 4 0 2 - - 0.0
24/07:40am 7.4 6.6 6.5 94 0.4 CALM 0 2 0 1 - - 0.0
24/07:30am 6.3 5.3 5.8 97 0.2 CALM 0 0 0 0 - - 0.0
24/07:20am 5.6 4.5 5.2 97 0.2 CALM 0 0 0 0 - - 0.0
24/07:10am 5.3 4.2 5.0 98 0.1 CALM 0 0 0 0 - - 0.0
24/07:00am 5.1 3.9 4.8 98 0.1 CALM 0 0 0 0 - - 0.0
24/06:50am 4.9 3.7 4.5 97 0.2 CALM 0 0 0 0 - - 0.0
24/06:40am 4.8 3.6 4.4 97 0.2 CALM 0 0 0 0 - - 0.0
24/06:30am 4.8 3.6 4.4 97 0.2 CALM 0 0 0 0 - - 0.0
24/06:20am 4.7 3.4 4.3 97 0.2 CALM 0 0 0 0 - - 0.0
24/06:10am 4.7 3.4 4.3 97 0.2 CALM 0 0 0 0 - - 0.0

Other formats

Comma delimited format used in spreadsheet applications
http://www.bom.gov.au/fwo/IDV60801/IDV60801.99814.axf

JavaScript Object Notation format (JSON) in row-major order
http://www.bom.gov.au/fwo/IDV60801/IDV60801.99814.json

Data quality

Most of these data are generated automatically and are frequently updated. Quality checks on data are not normally performed. It is possible for incorrect values to appear. Refer to information at About Latest Weather Observations and please check the disclaimer before using these data.